Time;durP1;ratioP1;P1;durP2;ratioP2;P2;SDS_P1;SDS_P2;PMS_P1;PMS_P2;Temp;Humidity;BMP_temperature;BMP_pressure;BME280_temperature;BME280_humidity;BME280_pressure;Samples;Min_cycle;Max_cycle;Signal;HPM_P1;HPM_P2
2021/12/15 00:00:20;;;;;;;;;34.25;31.25;;;;;7.64;81.51;102302.44;4991733;28;45404;-81
2021/12/15 00:02:48;;;;;;;;;42.75;39.50;;;;;7.65;81.12;102304.22;4971857;28;45643;-81
2021/12/15 00:05:21;;;;;;;;;47.75;39.50;;;;;7.63;80.67;102292.75;4979034;28;46644;-80
2021/12/15 00:07:47;;;;;;;;;44.50;35.50;;;;;7.61;81.26;102294.50;4976585;28;45290;-81
2021/12/15 00:10:13;;;;;;;;;42.75;33.50;;;;;7.62;81.70;102288.38;4975458;28;45369;-80
2021/12/15 00:12:38;;;;;;;;;38.00;33.50;;;;;7.60;80.50;102287.44;4976517;28;45507;-81
2021/12/15 00:15:05;;;;;;;;;40.25;30.75;;;;;7.60;81.60;102284.81;4973711;28;46015;-81
2021/12/15 00:17:31;;;;;;;;;51.00;37.75;;;;;7.60;80.90;102283.94;4967622;28;45450;-80
2021/12/15 00:19:57;;;;;;;;;49.75;39.50;;;;;7.62;81.32;102290.09;4982932;28;45337;-80
2021/12/15 00:22:22;;;;;;;;;43.75;39.00;;;;;7.61;81.19;102283.97;4980006;28;45413;-80
2021/12/15 00:24:47;;;;;;;;;32.00;22.25;;;;;7.58;81.22;102286.53;4977038;28;46126;-79
2021/12/15 00:27:13;;;;;;;;;42.75;34.25;;;;;7.59;81.43;102288.31;4952560;28;45545;-81
2021/12/15 00:29:39;;;;;;;;;43.25;39.50;;;;;7.60;81.25;102279.53;4959064;28;45337;-80
2021/12/15 00:32:06;;;;;;;;;47.25;38.25;;;;;7.60;81.43;102284.81;4970965;28;45536;-80
2021/12/15 00:34:37;;;;;;;;;25.50;16.75;;;;;7.62;80.82;102288.38;4975125;28;46342;-80
2021/12/15 00:37:04;;;;;;;;;42.00;34.25;;;;;7.59;80.92;102271.63;4977300;28;45507;-81
2021/12/15 00:39:30;;;;;;;;;44.75;38.25;;;;;7.60;80.95;102284.81;4968344;28;45368;-80
2021/12/15 00:41:58;;;;;;;;;46.00;40.50;;;;;7.57;81.47;102279.50;4956369;28;45404;-81
2021/12/15 00:44:23;;;;;;;;;38.50;34.50;;;;;7.59;81.48;102276.88;4963265;28;45432;-80
2021/12/15 00:46:51;;;;;;;;;47.00;42.75;;;;;7.62;81.44;102283.13;4974825;28;45537;-80
2021/12/15 00:49:17;;;;;;;;;42.25;37.00;;;;;7.62;81.38;102276.94;4972871;28;45571;-80
2021/12/15 00:51:44;;;;;;;;;46.25;38.25;;;;;7.61;81.25;102278.69;4984594;28;45556;-80
2021/12/15 00:54:10;;;;;;;;;46.50;33.00;;;;;7.60;81.05;102282.19;4976032;28;45499;-81
2021/12/15 00:56:36;;;;;;;;;51.75;42.75;;;;;7.58;81.75;102281.28;4975230;28;45561;-79
2021/12/15 00:59:04;;;;;;;;;51.50;43.75;;;;;7.56;80.94;102267.22;4975510;28;45322;-79
2021/12/15 01:01:30;;;;;;;;;38.50;34.50;;;;;7.59;80.94;102272.53;4976108;28;45544;-81
2021/12/15 01:03:55;;;;;;;;;54.00;39.00;;;;;7.63;80.94;102273.47;4968478;28;45483;-79
2021/12/15 01:06:21;;;;;;;;;43.25;35.00;;;;;7.68;80.83;102281.44;4960117;28;45612;-81
2021/12/15 01:08:55;;;;;;;;;46.25;37.25;;;;;7.69;81.14;102277.97;4959368;28;44819;-79
2021/12/15 01:20:12;;;;;;;;;35.00;33.75;;;;;7.68;80.28;102278.81;4913877;28;45500;-81
2021/12/15 01:22:43;;;;;;;;;51.00;38.50;;;;;7.68;80.57;102284.97;4915450;28;45507;-79
2021/12/15 01:25:22;;;;;;;;;47.75;37.00;;;;;7.71;80.38;102278.88;4914346;28;46391;-80
2021/12/15 01:27:50;;;;;;;;;45.00;38.00;;;;;7.71;80.50;102270.97;4915349;28;45465;-79
2021/12/15 01:30:20;;;;;;;;;52.75;41.25;;;;;7.70;80.67;102274.47;4914720;28;45484;-80
2021/12/15 01:32:47;;;;;;;;;34.25;32.50;;;;;7.71;81.00;102279.75;4914160;28;45560;-80
2021/12/15 01:35:12;;;;;;;;;33.25;31.00;;;;;7.69;81.31;102272.72;4917079;28;45454;-80
2021/12/15 01:37:39;;;;;;;;;35.75;32.50;;;;;7.70;80.32;102274.47;4921119;28;45407;-80
2021/12/15 01:40:08;;;;;;;;;33.25;30.50;;;;;7.70;80.60;102279.72;4922932;28;45541;-80
2021/12/15 01:42:35;;;;;;;;;39.50;33.50;;;;;7.69;80.76;102276.22;4906295;28;45560;-79
2021/12/15 01:54:31;;;;;;;;;32.75;27.00;;;;;7.73;80.53;102279.78;4963251;28;45447;-79
2021/12/15 01:56:57;;;;;;;;;29.00;26.00;;;;;7.73;80.05;102279.78;4960982;28;47355;-81
2021/12/15 01:59:25;;;;;;;;;33.00;27.50;;;;;7.70;80.84;102288.53;4961802;28;45459;-80
2021/12/15 02:01:51;;;;;;;;;32.25;25.50;;;;;7.68;79.83;102286.72;4975795;28;45568;-80
2021/12/15 02:04:19;;;;;;;;;35.50;28.25;;;;;7.68;79.99;102291.97;4979617;28;45503;-80
2021/12/15 02:06:46;;;;;;;;;31.50;29.25;;;;;7.71;80.10;102286.78;4981718;28;45472;-80
2021/12/15 02:09:20;;;;;;;;;39.50;32.00;;;;;7.75;80.41;102293.88;4970567;28;45524;-81
2021/12/15 02:11:46;;;;;;;;;45.50;34.75;;;;;7.75;80.62;102293.88;4959820;28;45500;-80
2021/12/15 02:14:11;;;;;;;;;33.00;28.00;;;;;7.74;80.70;102295.59;4979523;28;45566;-79
2021/12/15 02:16:37;;;;;;;;;44.00;31.00;;;;;7.72;80.08;102293.81;4976616;28;46227;-80
2021/12/15 02:19:03;;;;;;;;;27.50;26.25;;;;;7.76;79.67;102300.94;4989779;28;45933;-79
2021/12/15 02:21:28;;;;;;;;;45.50;33.00;;;;;7.75;80.72;102300.03;4976444;28;45417;-80
2021/12/15 02:23:57;;;;;;;;;39.00;30.50;;;;;7.69;79.95;102299.03;4978093;28;45453;-80
2021/12/15 02:26:27;;;;;;;;;49.75;38.75;;;;;7.72;80.91;102301.72;4978230;28;45312;-80
2021/12/15 02:28:57;;;;;;;;;37.00;31.00;;;;;7.71;80.51;102305.19;4978066;28;45429;-79
2021/12/15 02:39:32;;;;;;;;;27.25;26.00;;;;;7.74;80.04;102302.63;4984339;28;45370;-80
2021/12/15 02:41:59;;;;;;;;;26.00;22.50;;;;;7.75;80.16;102300.03;4979961;28;45413;-80
2021/12/15 02:44:26;;;;;;;;;29.00;24.75;;;;;7.68;80.62;102299.88;4959487;28;45318;-79
2021/12/15 02:46:53;;;;;;;;;25.25;23.75;;;;;7.70;79.41;102303.41;4959997;28;45310;-79
2021/12/15 02:49:22;;;;;;;;;38.00;28.00;;;;;7.69;79.53;102299.03;4977668;28;45575;-80
2021/12/15 02:51:50;;;;;;;;;27.25;21.50;;;;;7.72;80.69;102305.22;4977047;28;45376;-79
2021/12/15 02:54:18;;;;;;;;;33.00;29.75;;;;;7.73;80.37;102300.84;4977327;28;45579;-81
2021/12/15 02:56:46;;;;;;;;;32.75;27.00;;;;;7.73;79.71;102306.09;4974274;28;45478;-79
2021/12/15 02:59:15;;;;;;;;;28.25;27.75;;;;;7.75;80.17;102304.41;4977416;28;45423;-79
2021/12/15 03:04:43;;;;;;;;;30.50;26.25;;;;;7.69;79.76;102293.75;4958183;28;45616;-79
2021/12/15 03:07:27;;;;;;;;;37.50;28.50;;;;;7.70;79.85;102298.16;4978151;28;46524;-79
2021/12/15 03:15:35;;;;;;;;;26.75;22.75;;;;;7.72;79.43;102296.44;4977281;28;45397;-80
2021/12/15 03:18:09;;;;;;;;;27.25;24.75;;;;;7.72;78.60;102299.09;4973155;28;45404;-79
2021/12/15 03:20:39;;;;;;;;;37.25;30.75;;;;;7.71;79.66;102302.56;4975500;28;45358;-79
2021/12/15 03:23:07;;;;;;;;;30.00;27.50;;;;;7.71;79.87;102299.94;4977351;28;45459;-79
2021/12/15 03:25:33;;;;;;;;;30.75;25.75;;;;;7.70;79.37;102296.41;4975845;28;45469;-78
2021/12/15 03:36:06;;;;;;;;;32.50;21.75;;;;;7.72;79.56;102304.34;4985223;28;45495;-80
2021/12/15 03:38:33;;;;;;;;;28.00;24.25;;;;;7.71;79.61;102297.28;4983547;28;45494;-80
2021/12/15 03:40:59;;;;;;;;;20.25;18.00;;;;;7.74;78.73;102300.88;4976167;28;45507;-80
2021/12/15 03:43:25;;;;;;;;;23.00;19.50;;;;;7.72;78.42;102305.22;4981168;28;45363;-79
2021/12/15 03:45:59;;;;;;;;;22.50;19.25;;;;;7.70;78.96;102306.94;4972402;28;45365;-81
2021/12/15 03:48:28;;;;;;;;;30.75;23.50;;;;;7.71;79.57;102307.81;4958863;28;45505;-81
2021/12/15 03:50:56;;;;;;;;;25.50;24.50;;;;;7.70;78.73;102303.41;4962477;28;45427;-79
2021/12/15 03:53:24;;;;;;;;;35.00;24.50;;;;;7.71;78.76;102303.44;4976908;28;45409;-80
2021/12/15 03:55:51;;;;;;;;;24.50;19.50;;;;;7.75;78.13;102312.31;4968299;28;45434;-80
2021/12/15 03:58:21;;;;;;;;;31.25;23.00;;;;;7.74;78.99;102310.53;4981376;28;46491;-80
2021/12/15 04:00:51;;;;;;;;;25.75;21.75;;;;;7.73;78.87;102301.75;4975449;28;45427;-80
2021/12/15 04:03:25;;;;;;;;;29.50;25.00;;;;;7.76;78.58;102316.72;4976045;28;45351;-80
2021/12/15 04:05:52;;;;;;;;;5.75;2.50;;;;;7.72;79.01;102310.50;4975852;28;45448;-81
2021/12/15 04:08:18;;;;;;;;;22.75;21.00;;;;;7.77;78.46;102318.47;4971875;28;45527;-80
2021/12/15 04:10:43;;;;;;;;;27.50;21.25;;;;;7.75;78.39;102313.19;4958771;28;45402;-80
2021/12/15 04:13:10;;;;;;;;;22.50;21.25;;;;;7.75;78.72;102305.28;4977109;28;45479;-80
2021/12/15 04:15:43;;;;;;;;;27.25;21.00;;;;;7.80;78.92;102310.63;4978146;28;45313;-80
2021/12/15 04:18:09;;;;;;;;;28.00;24.50;;;;;7.77;78.66;102300.97;4976784;28;45548;-81
2021/12/15 04:20:38;;;;;;;;;24.00;21.00;;;;;7.77;78.15;102306.22;4979568;28;45513;-78
2021/12/15 04:23:05;;;;;;;;;30.75;27.75;;;;;7.76;78.30;102306.19;4975302;28;45450;-79
2021/12/15 04:25:35;;;;;;;;;27.50;19.00;;;;;7.69;78.45;102288.50;4958526;28;45511;-81
2021/12/15 04:28:08;;;;;;;;;27.00;27.00;;;;;7.75;78.29;102304.41;4975613;28;45395;-79
2021/12/15 04:30:37;;;;;;;;;16.50;16.00;;;;;7.74;77.94;102302.63;4970836;28;45518;-80
2021/12/15 04:33:20;;;;;;;;;20.00;20.00;;;;;7.72;78.13;102294.69;4976033;28;45377;-80
2021/12/15 04:35:46;;;;;;;;;21.00;17.00;;;;;7.75;77.89;102293.88;4973845;28;45337;-80
2021/12/15 04:38:13;;;;;;;;;25.00;20.75;;;;;7.69;77.88;102288.50;4956123;28;46297;-80
2021/12/15 04:40:39;;;;;;;;;18.50;17.50;;;;;7.73;77.41;102299.13;4961223;28;45433;-82
2021/12/15 04:43:05;;;;;;;;;26.25;18.75;;;;;7.77;77.93;102297.41;4983426;28;45559;-80
2021/12/15 04:45:30;;;;;;;;;19.50;13.75;;;;;7.68;77.54;102297.25;4978059;28;45385;-81
2021/12/15 04:47:57;;;;;;;;;22.75;20.00;;;;;7.72;77.78;102306.97;4975351;28;45444;-80
2021/12/15 04:50:25;;;;;;;;;21.75;18.50;;;;;7.70;77.30;102303.41;4968826;28;45455;-81
2021/12/15 04:52:52;;;;;;;;;25.50;22.50;;;;;7.73;77.56;102314.91;4957357;28;45465;-79
2021/12/15 04:55:20;;;;;;;;;27.50;23.50;;;;;7.71;77.91;102307.81;4972816;28;45655;-80
2021/12/15 04:57:46;;;;;;;;;26.00;20.00;;;;;7.73;78.16;102322.81;4973632;28;46101;-79
2021/12/15 05:00:16;;;;;;;;;28.00;19.25;;;;;7.70;76.79;102308.69;4942081;28;45477;-80
2021/12/15 05:02:42;;;;;;;;;27.50;22.75;;;;;7.69;77.29;102309.56;4980055;28;45487;-80
2021/12/15 05:05:09;;;;;;;;;18.25;16.25;;;;;7.75;77.08;102325.47;4963186;28;45384;-80
2021/12/15 05:07:36;;;;;;;;;29.25;23.50;;;;;7.73;77.63;102320.16;4992679;28;45514;-79
2021/12/15 05:10:04;;;;;;;;;21.00;17.00;;;;;7.68;77.25;102315.66;4979108;28;45385;-80
2021/12/15 05:12:29;;;;;;;;;29.00;19.00;;;;;7.73;77.22;102328.06;4994114;28;45486;-80
2021/12/15 05:14:54;;;;;;;;;22.50;21.25;;;;;7.71;77.56;102329.75;4986256;28;45310;-79
2021/12/15 05:17:20;;;;;;;;;15.00;14.00;;;;;7.71;78.04;102334.16;4980814;28;45396;-78
2021/12/15 05:19:47;;;;;;;;;21.50;18.75;;;;;7.72;77.01;102328.91;4966863;28;45533;-79
2021/12/15 05:22:14;;;;;;;;;25.50;20.75;;;;;7.75;76.67;102336.00;4978556;28;45511;-79
2021/12/15 05:24:40;;;;;;;;;20.50;18.50;;;;;7.68;76.96;102320.94;4977787;28;45465;-80
2021/12/15 05:27:12;;;;;;;;;22.75;18.00;;;;;7.74;76.66;102334.22;4977510;28;45350;-80
2021/12/15 05:29:40;;;;;;;;;26.25;16.50;;;;;7.72;77.35;102336.81;4959301;28;45470;-80
2021/12/15 05:32:08;;;;;;;;;23.75;21.50;;;;;7.70;77.43;102337.63;4973652;28;45427;-75
2021/12/15 05:34:34;;;;;;;;;24.50;19.50;;;;;7.71;76.95;102345.56;4978277;28;45698;-76
2021/12/15 05:36:59;;;;;;;;;20.75;19.00;;;;;7.73;77.11;102350.84;4966581;28;45459;-76
2021/12/15 05:39:25;;;;;;;;;27.25;21.25;;;;;7.74;77.31;102350.88;4970994;28;45420;-77
2021/12/15 05:41:52;;;;;;;;;18.50;17.75;;;;;7.75;77.09;102351.78;4977104;28;45438;-76
2021/12/15 05:44:18;;;;;;;;;25.50;18.50;;;;;7.72;76.65;102349.97;4977010;28;45407;-80
2021/12/15 05:46:43;;;;;;;;;18.50;16.00;;;;;7.71;76.66;102349.94;4966819;28;46924;-80
2021/12/15 05:49:09;;;;;;;;;29.25;19.25;;;;;7.73;77.79;102349.13;4979516;28;45516;-80
2021/12/15 05:51:37;;;;;;;;;24.50;19.50;;;;;7.72;76.87;102347.34;4979306;28;45568;-80
2021/12/15 05:54:02;;;;;;;;;22.25;20.75;;;;;7.71;76.88;102345.56;4974627;28;45476;-80
2021/12/15 05:56:28;;;;;;;;;18.75;13.00;;;;;7.71;77.12;102349.94;4979324;28;45324;-80
2021/12/15 05:58:55;;;;;;;;;23.00;18.50;;;;;7.72;76.86;102351.72;4984020;28;45550;-81
2021/12/15 06:01:21;;;;;;;;;26.75;23.50;;;;;7.74;76.96;102360.53;4984821;28;45512;-81
2021/12/15 06:03:47;;;;;;;;;29.75;25.00;;;;;7.75;77.47;102364.94;4995675;28;45654;-80
2021/12/15 06:06:12;;;;;;;;;23.00;19.00;;;;;7.70;77.01;102350.78;4994562;28;45254;-81
2021/12/15 06:08:38;;;;;;;;;27.75;18.75;;;;;7.75;77.24;102373.72;4983649;28;45289;-80
2021/12/15 06:11:04;;;;;;;;;20.50;17.50;;;;;7.73;76.51;102358.75;4977938;28;45495;-80
2021/12/15 06:13:30;;;;;;;;;17.50;17.50;;;;;7.72;76.90;102362.25;4978837;28;45470;-78
2021/12/15 06:15:57;;;;;;;;;24.75;21.50;;;;;7.73;76.95;102369.28;4990746;28;45474;-79
2021/12/15 06:18:23;;;;;;;;;19.00;19.00;;;;;7.74;77.74;102378.97;5000639;28;45300;-80
2021/12/15 06:20:52;;;;;;;;;18.25;18.25;;;;;7.75;77.39;102372.84;4989693;28;44847;-81
2021/12/15 06:23:20;;;;;;;;;18.75;18.25;;;;;7.75;77.54;102383.38;4988667;28;45303;-80
2021/12/15 06:25:55;;;;;;;;;25.00;20.50;;;;;7.77;77.24;102381.66;4958732;28;45416;-79
2021/12/15 06:28:22;;;;;;;;;24.25;21.00;;;;;7.79;77.38;102379.97;4958305;28;45809;-79
2021/12/15 06:30:48;;;;;;;;;22.50;18.25;;;;;7.79;76.95;102374.69;4973291;28;45437;-84
2021/12/15 06:33:15;;;;;;;;;27.50;22.00;;;;;7.78;76.79;102384.31;4977167;28;45553;-79
2021/12/15 06:35:42;;;;;;;;;28.25;18.00;;;;;7.79;76.24;102393.13;4979279;28;46539;-81
2021/12/15 06:38:08;;;;;;;;;18.75;16.00;;;;;7.81;76.77;102383.50;4974949;28;45611;-76
2021/12/15 06:40:35;;;;;;;;;24.25;21.00;;;;;7.82;77.22;102394.06;4955820;28;45443;-76
2021/12/15 06:43:00;;;;;;;;;18.00;15.00;;;;;7.78;76.49;102393.97;4975083;28;45604;-76
2021/12/15 06:45:34;;;;;;;;;17.50;16.50;;;;;7.80;76.41;102395.78;4976206;28;45352;-75
2021/12/15 06:58:56;;;;;;;;;17.50;14.75;;;;;7.80;76.77;102408.94;4966214;28;45314;-81
2021/12/15 07:01:22;;;;;;;;;24.25;17.75;;;;;7.81;76.31;102405.44;4964816;28;45278;-80
2021/12/15 07:03:47;;;;;;;;;25.50;20.00;;;;;7.81;76.34;102409.81;4968653;28;45731;-77
2021/12/15 07:06:12;;;;;;;;;20.00;17.00;;;;;7.78;76.30;102394.84;4940383;28;47949;-77
2021/12/15 07:08:39;;;;;;;;;17.75;17.25;;;;;7.85;76.65;102409.03;4974187;28;45366;-76
2021/12/15 07:11:06;;;;;;;;;21.75;21.75;;;;;7.86;76.47;102402.91;4973306;28;45494;-76
2021/12/15 07:13:33;;;;;;;;;27.75;21.25;;;;;7.87;75.92;102414.34;4972882;28;45465;-76
2021/12/15 07:16:01;;;;;;;;;20.25;15.50;;;;;7.85;76.56;102411.69;4958389;28;46352;-77
2021/12/15 07:18:38;;;;;;;;;20.25;17.00;;;;;7.87;76.21;102415.22;4981848;28;45456;-76
2021/12/15 07:21:08;;;;;;;;;17.50;15.00;;;;;7.88;76.19;102424.00;4967683;28;45560;-80
2021/12/15 07:23:35;;;;;;;;;19.25;15.75;;;;;7.85;76.23;102416.94;4971104;28;45489;-76
2021/12/15 07:26:00;;;;;;;;;21.25;18.00;;;;;7.85;75.81;102422.22;4963180;28;45416;-78
2021/12/15 07:28:25;;;;;;;;;21.50;21.25;;;;;7.86;75.80;102428.34;4975056;28;45618;-77
2021/12/15 07:30:52;;;;;;;;;24.25;17.00;;;;;7.79;76.06;102419.44;4973484;28;46043;-83
2021/12/15 07:33:17;;;;;;;;;17.50;15.25;;;;;7.76;76.24;102411.50;4968726;28;45382;-77
2021/12/15 07:35:43;;;;;;;;;15.00;13.00;;;;;7.88;76.11;102427.53;4975220;28;45452;-76
2021/12/15 07:38:09;;;;;;;;;21.00;18.00;;;;;7.88;75.98;102430.16;4979226;28;45501;-76
2021/12/15 07:40:37;;;;;;;;;14.50;11.00;;;;;7.91;75.42;102442.47;4968311;28;45412;-77
2021/12/15 07:43:10;;;;;;;;;20.00;15.75;;;;;7.91;75.85;102440.75;4970434;28;45401;-77
2021/12/15 07:45:52;;;;;;;;;20.25;15.00;;;;;7.92;75.64;102445.16;4948945;28;46076;-78
2021/12/15 07:48:20;;;;;;;;;17.25;15.50;;;;;7.92;76.41;102450.41;4960929;28;45439;-77
2021/12/15 07:50:49;;;;;;;;;18.00;14.00;;;;;7.95;76.07;102450.47;4973755;28;45679;-76
2021/12/15 07:53:16;;;;;;;;;14.75;12.00;;;;;7.96;75.61;102454.03;4964146;28;45511;-77
2021/12/15 07:55:42;;;;;;;;;12.50;10.00;;;;;7.92;75.32;102439.88;4967404;28;47453;-78
2021/12/15 07:58:09;;;;;;;;;20.50;15.50;;;;;7.96;76.16;102454.91;4972471;28;45527;-78
2021/12/15 08:00:38;;;;;;;;;17.00;16.00;;;;;7.99;75.54;102456.72;4964072;28;45350;-77
2021/12/15 08:03:05;;;;;;;;;21.50;16.50;;;;;8.03;75.66;102457.66;4967456;28;45492;-77
2021/12/15 08:05:30;;;;;;;;;16.00;14.00;;;;;8.02;76.05;102459.41;4946467;28;46149;-77
2021/12/15 08:07:56;;;;;;;;;16.00;15.00;;;;;7.97;75.82;102448.78;4963967;28;45378;-77
2021/12/15 08:10:22;;;;;;;;;20.50;16.00;;;;;8.00;76.15;102451.47;4967305;28;45505;-77
2021/12/15 08:12:48;;;;;;;;;23.25;18.00;;;;;8.08;76.02;102456.03;4966807;28;45683;-76
2021/12/15 08:15:14;;;;;;;;;20.00;20.00;;;;;8.12;75.71;102465.75;4960765;28;45358;-77
2021/12/15 08:17:42;;;;;;;;;15.75;15.25;;;;;8.11;75.99;102454.31;4957663;28;45555;-77
2021/12/15 08:20:11;;;;;;;;;24.75;21.00;;;;;8.19;76.02;102467.66;4963062;28;45542;-76
2021/12/15 08:22:38;;;;;;;;;21.75;17.00;;;;;8.20;75.15;102466.78;4955056;28;45412;-77
2021/12/15 08:25:05;;;;;;;;;18.00;15.25;;;;;8.23;75.80;102471.22;4970372;28;45578;-76
2021/12/15 08:27:31;;;;;;;;;21.75;14.00;;;;;8.24;75.70;102462.47;4972781;28;45505;-77
2021/12/15 08:29:57;;;;;;;;;15.50;15.50;;;;;8.26;75.24;102466.00;4955372;28;45690;-76
2021/12/15 08:32:22;;;;;;;;;15.50;13.50;;;;;8.25;74.70;102451.97;4983857;28;45547;-78
2021/12/15 08:34:47;;;;;;;;;15.75;11.00;;;;;8.34;75.26;102456.53;4975517;28;46022;-76
2021/12/15 08:37:14;;;;;;;;;14.50;12.00;;;;;8.35;75.07;102461.81;4953936;28;45452;-76
2021/12/15 08:39:44;;;;;;;;;9.75;9.00;;;;;8.41;74.74;102468.97;4968445;28;45580;-76
2021/12/15 08:42:13;;;;;;;;;11.00;7.00;;;;;8.44;74.01;102466.41;4966240;28;45631;-76
2021/12/15 08:44:39;;;;;;;;;9.75;8.50;;;;;8.48;74.32;102467.34;4974913;28;46205;-77
2021/12/15 08:47:07;;;;;;;;;12.50;9.75;;;;;8.49;74.49;102475.28;4977457;28;45458;-76
2021/12/15 08:49:33;;;;;;;;;19.75;10.00;;;;;8.52;74.73;102471.84;4988417;28;45472;-76
2021/12/15 08:51:59;;;;;;;;;14.00;8.00;;;;;8.56;74.41;102467.50;4961714;28;45432;-74
2021/12/15 08:54:25;;;;;;;;;9.50;8.00;;;;;8.58;73.83;102469.31;4973330;28;45478;-75
2021/12/15 08:56:52;;;;;;;;;17.50;11.00;;;;;8.64;73.61;102469.41;4965459;28;45435;-76
2021/12/15 08:59:18;;;;;;;;;10.00;7.50;;;;;8.67;73.58;102463.28;4986401;28;45377;-78
2021/12/15 09:01:44;;;;;;;;;11.00;8.50;;;;;8.74;74.38;102470.44;4975864;28;45591;-75
2021/12/15 09:04:11;;;;;;;;;9.00;7.00;;;;;8.80;73.78;102472.31;4984112;28;46208;-74
2021/12/15 09:06:39;;;;;;;;;14.50;10.50;;;;;8.83;73.12;102482.91;4964677;28;45346;-75
2021/12/15 09:09:09;;;;;;;;;13.00;10.50;;;;;8.73;73.63;102473.97;4954931;28;45387;-75
2021/12/15 09:11:36;;;;;;;;;12.50;11.50;;;;;8.75;73.47;102484.53;4959246;28;45441;-75
2021/12/15 09:14:04;;;;;;;;;14.75;8.50;;;;;8.81;73.89;102484.66;4976807;28;45369;-75
2021/12/15 09:16:32;;;;;;;;;10.50;6.00;;;;;8.89;73.65;102485.66;4965967;28;45397;-76
2021/12/15 09:18:59;;;;;;;;;15.25;12.50;;;;;8.92;74.06;102485.72;4962662;28;45718;-75
2021/12/15 09:21:27;;;;;;;;;10.50;10.50;;;;;8.95;73.61;102488.41;4963465;28;45473;-74
2021/12/15 09:23:53;;;;;;;;;9.75;9.75;;;;;9.03;73.41;102486.81;4972836;28;45525;-75
2021/12/15 09:26:20;;;;;;;;;11.25;10.50;;;;;9.07;73.86;102485.09;4972350;28;45326;-75
2021/12/15 09:28:48;;;;;;;;;13.75;11.50;;;;;9.16;74.02;102484.38;4973710;28;45499;-75
2021/12/15 09:31:16;;;;;;;;;20.75;16.75;;;;;9.19;73.14;102479.13;4967423;28;45502;-76
2021/12/15 09:33:44;;;;;;;;;22.50;18.75;;;;;9.20;72.90;102500.25;4973105;28;46098;-75
2021/12/15 09:36:12;;;;;;;;;21.50;18.50;;;;;9.24;73.48;102488.00;4956892;28;45452;-76
2021/12/15 09:38:39;;;;;;;;;16.25;12.50;;;;;9.24;72.88;102488.00;4970754;28;45452;-76
2021/12/15 09:41:07;;;;;;;;;21.50;16.00;;;;;9.26;72.91;102486.25;4962916;28;45658;-76
2021/12/15 09:43:34;;;;;;;;;13.00;12.25;;;;;9.27;72.75;102481.88;4974890;28;45372;-75
2021/12/15 09:46:11;;;;;;;;;15.50;15.00;;;;;9.27;72.83;102482.75;4974159;28;45485;-76
2021/12/15 09:57:17;;;;;;;;;13.25;12.25;;;;;9.41;72.15;102488.25;4973967;28;45492;-76
2021/12/15 10:02:38;;;;;;;;;18.50;15.25;;;;;9.48;71.65;102481.34;4987877;28;45518;-76
2021/12/15 10:05:17;;;;;;;;;17.50;15.25;;;;;9.49;72.26;102484.00;4951147;28;46271;-75
2021/12/15 10:11:10;;;;;;;;;13.50;10.75;;;;;9.50;72.47;102479.59;4968126;28;45620;-76
2021/12/15 10:19:34;;;;;;;;;13.25;12.25;;;;;9.53;72.48;102500.75;4960643;28;45448;-75
2021/12/15 10:22:14;;;;;;;;;12.50;12.25;;;;;9.55;72.14;102496.38;4975169;28;45484;-77
2021/12/15 10:24:53;;;;;;;;;12.25;10.50;;;;;9.58;72.35;102499.06;4953563;28;45487;-77
2021/12/15 10:27:40;;;;;;;;;15.25;10.00;;;;;9.61;72.56;102493.84;4960250;28;46223;-75
2021/12/15 10:30:22;;;;;;;;;15.50;13.00;;;;;9.60;72.27;102490.31;4967619;28;45768;-79
2021/12/15 10:32:51;;;;;;;;;12.50;11.00;;;;;9.64;72.57;102495.63;4957610;28;45543;-80
2021/12/15 10:35:24;;;;;;;;;15.50;14.00;;;;;9.69;72.29;102497.47;4982528;28;45383;-79
2021/12/15 10:38:12;;;;;;;;;16.75;11.25;;;;;9.69;71.70;102497.47;4971372;28;46131;-79
2021/12/15 10:40:50;;;;;;;;;12.25;12.25;;;;;9.73;71.82;102499.31;4971412;28;45374;-79
2021/12/15 10:43:16;;;;;;;;;13.50;10.25;;;;;9.78;71.49;102497.59;4963595;28;45391;-80
2021/12/15 10:45:52;;;;;;;;;11.75;9.50;;;;;9.77;71.60;102495.81;4960304;28;45416;-80
2021/12/15 10:48:35;;;;;;;;;13.50;10.00;;;;;9.82;71.20;102487.06;4966842;28;45547;-75
2021/12/15 10:51:23;;;;;;;;;15.25;11.75;;;;;9.78;71.35;102489.69;4956402;28;45461;-76
2021/12/15 10:53:50;;;;;;;;;9.25;5.75;;;;;9.80;71.72;102488.81;4969519;28;45560;-75
2021/12/15 10:56:21;;;;;;;;;21.25;14.75;;;;;9.82;71.69;102481.78;4973448;28;45534;-77
2021/12/15 10:58:50;;;;;;;;;14.50;12.75;;;;;9.90;71.13;102485.41;4974741;28;45480;-76
2021/12/15 11:01:35;;;;;;;;;14.00;13.50;;;;;9.96;71.29;102485.53;4962877;28;45372;-75
2021/12/15 11:04:02;;;;;;;;;20.50;15.25;;;;;10.00;70.77;102481.16;4984369;28;45398;-75
2021/12/15 11:06:33;;;;;;;;;12.75;11.00;;;;;10.03;71.21;102479.44;4964694;28;45539;-77
2021/12/15 11:09:14;;;;;;;;;17.25;14.75;;;;;10.10;71.31;102483.91;4962933;28;46455;-76
2021/12/15 11:11:55;;;;;;;;;19.50;16.00;;;;;10.17;70.55;102478.72;4969995;28;45478;-76
2021/12/15 11:14:34;;;;;;;;;15.00;9.00;;;;;10.19;70.37;102479.59;4969173;28;45321;-76
2021/12/15 11:17:16;;;;;;;;;13.00;12.25;;;;;10.15;69.95;102473.41;4969063;28;45404;-76
2021/12/15 11:19:50;;;;;;;;;14.25;10.50;;;;;10.17;70.26;102474.31;4967044;28;45452;-77
2021/12/15 11:22:41;;;;;;;;;14.00;10.00;;;;;10.21;70.28;102483.19;4961912;28;45471;-76
2021/12/15 11:25:28;;;;;;;;;18.25;15.75;;;;;10.11;70.07;102482.16;4966691;28;45578;-77
2021/12/15 11:28:11;;;;;;;;;15.75;15.75;;;;;10.08;70.43;102480.38;4962478;28;45450;-75
2021/12/15 11:30:57;;;;;;;;;18.00;15.00;;;;;10.11;70.59;102471.59;4962187;28;45428;-77
2021/12/15 11:33:33;;;;;;;;;19.75;15.25;;;;;10.11;70.54;102474.22;4963789;28;45476;-76
2021/12/15 11:36:03;;;;;;;;;15.00;10.50;;;;;10.02;70.74;102464.47;4970237;28;45358;-80
2021/12/15 11:38:38;;;;;;;;;16.50;12.75;;;;;10.06;71.26;102460.97;4971548;28;45314;-79
2021/12/15 11:41:14;;;;;;;;;19.50;15.75;;;;;10.08;70.70;102461.88;4969143;28;45582;-81
2021/12/15 11:43:50;;;;;;;;;11.75;10.25;;;;;10.13;71.03;102470.75;4964580;28;45442;-79
2021/12/15 11:46:41;;;;;;;;;11.50;9.50;;;;;10.16;70.93;102455.78;4958558;28;45524;-79
2021/12/15 11:49:13;;;;;;;;;13.00;10.75;;;;;10.16;70.80;102458.44;4958756;28;45439;-81
2021/12/15 11:51:46;;;;;;;;;11.25;10.00;;;;;10.14;70.49;102464.59;4964676;28;45464;-80
2021/12/15 11:54:35;;;;;;;;;10.75;10.00;;;;;10.10;70.38;102462.78;4947020;28;45373;-80
2021/12/15 11:57:15;;;;;;;;;16.25;15.50;;;;;10.11;70.96;102461.94;4973801;28;45469;-80
2021/12/15 11:59:44;;;;;;;;;16.00;12.00;;;;;10.18;70.74;102462.88;4970019;28;45493;-80
2021/12/15 12:02:22;;;;;;;;;13.00;13.00;;;;;10.16;70.45;102461.97;4966945;28;45630;-81
2021/12/15 12:04:52;;;;;;;;;15.75;13.50;;;;;10.18;70.33;102454.06;4960509;28;45416;-81
2021/12/15 12:07:23;;;;;;;;;15.75;13.50;;;;;10.18;70.37;102460.22;4970624;28;45606;-82
2021/12/15 12:09:52;;;;;;;;;9.00;8.25;;;;;10.17;70.27;102454.94;4969346;28;45397;-81
2021/12/15 12:12:21;;;;;;;;;10.25;7.25;;;;;10.11;70.13;102448.72;4970577;28;45615;-79
2021/12/15 12:14:50;;;;;;;;;6.25;4.00;;;;;10.05;69.96;102453.94;4956545;28;45543;-79
2021/12/15 12:17:31;;;;;;;;;6.00;2.00;;;;;10.01;70.27;102452.13;4963898;28;45502;-80
2021/12/15 12:20:00;;;;;;;;;4.50;4.50;;;;;9.98;70.17;102445.91;4946486;28;45596;-81
2021/12/15 12:22:28;;;;;;;;;8.50;4.50;;;;;10.02;70.21;102443.31;4969263;28;45464;-81
2021/12/15 12:24:57;;;;;;;;;8.50;5.50;;;;;10.01;70.41;102446.81;4967996;28;45501;-80
2021/12/15 12:27:26;;;;;;;;;7.00;5.50;;;;;10.02;70.29;102448.63;4965942;28;45460;-80
2021/12/15 12:29:54;;;;;;;;;7.00;5.00;;;;;10.01;70.74;102449.47;4962527;28;45580;-81
2021/12/15 12:32:21;;;;;;;;;7.25;5.25;;;;;10.00;70.34;102444.16;4975719;28;46284;-81
2021/12/15 12:34:47;;;;;;;;;9.25;6.50;;;;;9.96;70.31;102436.22;4968227;28;45453;-81
2021/12/15 12:37:16;;;;;;;;;8.75;5.00;;;;;9.92;70.11;102442.31;4974102;28;45330;-78
2021/12/15 12:39:45;;;;;;;;;5.00;4.50;;;;;9.88;69.80;102432.56;4968909;28;45472;-82